^^
Station Historical Data
Daily Summary for February 25, 2017 Units:  English    Metric   Both
« Previous Day
Next Day »
Daily Weekly Monthly Yearly Custom
  High: Low: Average:
Temperature: 64.5 °F 41.3 °F 55.1 °F
Dew Point: 58.2 °F 38.3 °F 52.3 °F
Humidity: 97% 78% 91%
Wind Speed: 8.0mph 0.0mph 2.3mph
Wind Gust: 23.0mph - -
Wind- - SSW
Pressure: 29.85 in 29.47 in -
Precipitation: 0.77 in    
Historical Graphs
 
 
Tabular Data for February 25, 2017
Time Temperature Dew Point Pressure Wind Wind Speed Wind Gust Humidity Rainfall Rate (Hourly) Conditions
00:00 58.8 °F 56.5 °F 29.85 in SSE 3.0 mph 10.0 mph 92% 0.00 in CLR
00:15 58.7 °F 56.1 °F 29.85 in South 1.0 mph 9.0 mph 91% 0.00 in CLR
00:30 58.5 °F 55.9 °F 29.85 in South 5.0 mph 13.0 mph 91% 0.00 in CLR
00:45 58.2 °F 55.9 °F 29.85 in SSE 2.0 mph 9.0 mph 92% 0.00 in CLR
01:00 58.2 °F 55.9 °F 29.85 in South 5.0 mph 9.0 mph 92% 0.00 in CLR
01:15 58.4 °F 56.1 °F 29.85 in SSW 1.0 mph 8.0 mph 92% 0.00 in CLR
01:30 58.6 °F 56.3 °F 29.84 in South 6.0 mph 12.0 mph 92% 0.00 in CLR
01:45 58.4 °F 55.8 °F 29.83 in South 2.0 mph 8.0 mph 91% 0.00 in CLR
02:00 57.7 °F 55.1 °F 29.84 in SW 2.0 mph 5.0 mph 91% 0.00 in CLR
02:15 57.0 °F 54.7 °F 29.84 in South 2.0 mph 7.0 mph 92% 0.00 in CLR
02:30 56.0 °F 53.7 °F 29.83 in South 1.0 mph 5.0 mph 92% 0.00 in CLR
02:45 55.3 °F 53.3 °F 29.83 in SSE 2.0 mph 5.0 mph 93% 0.00 in CLR
03:00 54.9 °F 53.2 °F 29.83 in South 1.0 mph 6.0 mph 94% 0.00 in CLR
03:15 54.6 °F 52.9 °F 29.83 in SSW 1.0 mph 4.0 mph 94% 0.00 in CLR
03:30 54.4 °F 53.0 °F 29.82 in Calm   4.0 mph 95% 0.00 in CLR
03:45 54.2 °F 52.8 °F 29.82 in Calm   5.0 mph 95% 0.00 in CLR
04:00 53.9 °F 52.5 °F 29.81 in Calm   4.0 mph 95% 0.00 in CLR
04:15 53.4 °F 52.0 °F 29.81 in Calm   2.0 mph 95% 0.00 in CLR
04:30 53.3 °F 52.2 °F 29.81 in Calm   2.0 mph 96% 0.00 in CLR
04:45 53.3 °F 52.2 °F 29.80 in Calm   3.0 mph 96% 0.00 in CLR
05:00 52.8 °F 51.7 °F 29.80 in Calm   6.0 mph 96% 0.00 in CLR
05:15 52.7 °F 51.6 °F 29.80 in Calm   1.0 mph 96% 0.00 in CLR
05:30 52.9 °F 51.8 °F 29.80 in Calm   3.0 mph 96% 0.00 in CLR
05:45 52.8 °F 51.7 °F 29.80 in South 1.0 mph 3.0 mph 96% 0.00 in CLR
06:00 52.8 °F 51.7 °F 29.79 in Calm   3.0 mph 96% 0.00 in CLR
06:15 52.8 °F 51.7 °F 29.79 in Calm   4.0 mph 96% 0.00 in CLR
06:30 52.6 °F 51.5 °F 29.78 in Calm   4.0 mph 96% 0.00 in CLR
06:45 52.9 °F 52.0 °F 29.78 in Calm   7.0 mph 97% 0.00 in CLR
07:00 52.9 °F 52.1 °F 29.78 in South 1.0 mph 5.0 mph 97% 0.00 in CLR
07:15 52.9 °F 52.1 °F 29.78 in Calm   6.0 mph 97% 0.00 in CLR
07:30 52.7 °F 51.9 °F 29.78 in SSW 1.0 mph 4.0 mph 97% 0.00 in CLR
07:45 52.2 °F 51.1 °F 29.78 in Calm   3.0 mph 96% 0.00 in CLR
08:00 52.1 °F 51.3 °F 29.77 in South 2.0 mph 12.0 mph 97% 0.00 in CLR
08:15 52.4 °F 51.6 °F 29.77 in Calm   6.0 mph 97% 0.00 in CLR
08:30 53.5 °F 52.7 °F 29.77 in Calm   7.0 mph 97% 0.00 in CLR
08:45 54.3 °F 53.5 °F 29.77 in WSW 2.0 mph 9.0 mph 97% 0.00 in CLR
09:00 54.6 °F 53.5 °F 29.76 in SSW 2.0 mph 8.0 mph 96% 0.00 in CLR
09:15 55.3 °F 54.2 °F 29.76 in South 3.0 mph 9.0 mph 96% 0.00 in CLR
09:30 56.0 °F 54.6 °F 29.75 in Calm   6.0 mph 95% 0.00 in CLR
09:45 55.5 °F 53.8 °F 29.74 in SSW 2.0 mph 7.0 mph 94% 0.00 in CLR
10:00 56.0 °F 54.3 °F 29.74 in South 1.0 mph 8.0 mph 94% 0.00 in CLR
10:15 55.9 °F 54.2 °F 29.73 in SSW 1.0 mph 9.0 mph 94% 0.00 in CLR
10:30 56.4 °F 54.7 °F 29.73 in SW 2.0 mph 9.0 mph 94% 0.00 in CLR
10:45 56.7 °F 54.7 °F 29.72 in South 3.0 mph 12.0 mph 93% 0.00 in CLR
11:00 57.7 °F 55.7 °F 29.72 in SSE 3.0 mph 7.0 mph 93% 0.00 in CLR
11:15 57.7 °F 55.4 °F 29.70 in South 2.0 mph 8.0 mph 92% 0.00 in CLR
11:30 58.1 °F 55.5 °F 29.70 in SSW 3.0 mph 13.0 mph 91% 0.00 in CLR
11:45 58.3 °F 55.7 °F 29.70 in SSW 3.0 mph 12.0 mph 91% 0.00 in CLR
12:00 58.9 °F 56.0 °F 29.69 in SSE 2.0 mph 10.0 mph 90% 0.00 in CLR
12:15 59.5 °F 56.3 °F 29.68 in South 2.0 mph 8.0 mph 89% 0.00 in BKN
12:30 61.1 °F 56.9 °F 29.66 in SSW 3.0 mph 12.0 mph 86% 0.00 in BKN
12:45 62.6 °F 57.7 °F 29.64 in South 5.0 mph 13.0 mph 84% 0.00 in BKN
13:00 64.2 °F 57.2 °F 29.64 in SSE 8.0 mph 15.0 mph 78% 0.00 in BKN
13:15 64.4 °F 57.4 °F 29.62 in SSW 6.0 mph 14.0 mph 78% 0.00 in BKN
13:30 64.5 °F 57.5 °F 29.61 in South 3.0 mph 12.0 mph 78% 0.00 in BKN
13:45 64.2 °F 57.2 °F 29.60 in South 3.0 mph 18.0 mph 78% 0.00 in BKN
14:00 64.0 °F 57.0 °F 29.61 in SW 3.0 mph 12.0 mph 78% 0.00 in BKN
14:15 62.8 °F 56.5 °F 29.59 in South 2.0 mph 9.0 mph 80% 0.00 in BKN
14:30 62.7 °F 56.8 °F 29.58 in South 2.0 mph 12.0 mph 81% 0.00 in BKN
14:45 63.2 °F 57.3 °F 29.57 in SSW 3.0 mph 9.0 mph 81% 0.00 in BKN
15:00 63.9 °F 57.9 °F 29.55 in SSE 3.0 mph 18.0 mph 81% 0.00 in BKN
15:15 64.5 °F 58.2 °F 29.53 in South 5.0 mph 12.0 mph 80% 0.00 in BKN
15:30 64.5 °F 58.2 °F 29.50 in South 2.0 mph 18.0 mph 80% 0.00 in BKN
15:45 64.1 °F 57.8 °F 29.49 in SSW 7.0 mph 23.0 mph 80% 0.00 in BKN
16:00 63.4 °F 57.8 °F 29.49 in SW 5.0 mph 14.0 mph 82% 0.00 in BKN
16:15 63.6 °F 58.0 °F 29.48 in SW 5.0 mph 13.0 mph 82% 0.00 in BKN
16:30 63.1 °F 57.6 °F 29.48 in SSE 6.0 mph 20.0 mph 82% 0.00 in BKN
16:45 61.8 °F 57.3 °F 29.47 in SSW 5.0 mph 17.0 mph 85% 0.00 in BKN
17:00 61.3 °F 57.1 °F 29.49 in South 7.0 mph 12.0 mph 86% 0.00 in BKN
17:15 60.7 °F 56.8 °F 29.49 in SSW 3.0 mph 14.0 mph 87% 0.00 in SCT
17:30 60.0 °F 56.7 °F 29.48 in South 5.0 mph 13.0 mph 89% 0.00 in SCT
17:45 59.3 °F 56.4 °F 29.48 in SSW 3.0 mph 13.0 mph 90% 0.00 in SCT
18:00 58.8 °F 56.2 °F 29.50 in SSW 6.0 mph 13.0 mph 91% 0.00 in SCT
18:15 58.7 °F 56.1 °F 29.50 in South 2.0 mph 12.0 mph 91% 0.00 in BKN
18:30 58.2 °F 55.6 °F 29.52 in WSW 3.0 mph 12.0 mph 91% 0.00 in BKN
18:45 55.1 °F 52.5 °F 29.56 in WSW 5.0 mph 13.0 mph 91% 0.16 in RA
19:00 52.6 °F 50.7 °F 29.58 in SW 6.0 mph 18.0 mph 93% 0.38 in RA
19:15 49.6 °F 47.4 °F 29.51 in North 2.0 mph 18.0 mph 92% 0.09 in RA
19:30 48.3 °F 46.1 °F 29.55 in North 2.0 mph 9.0 mph 92% 0.03 in RA
19:45 46.8 °F 44.6 °F 29.58 in NW 3.0 mph 10.0 mph 92% 0.00 in OVC
20:00 46.7 °F 44.2 °F 29.61 in NW 2.0 mph 16.0 mph 91% 0.03 in RA
20:15 46.1 °F 43.6 °F 29.62 in NW 1.0 mph 8.0 mph 91% 0.05 in -RA
20:30 45.7 °F 43.2 °F 29.58 in North 3.0 mph 7.0 mph 91% 0.01 in -RA
20:45 45.3 °F 42.9 °F 29.56 in NNW 2.0 mph 7.0 mph 91% 0.00 in -RA
21:00 45.0 °F 42.2 °F 29.59 in NNE 1.0 mph 7.0 mph 90% 0.02 in -RA
21:15 44.5 °F 42.0 °F 29.60 in Calm   5.0 mph 91% 0.00 in OVC
21:30 44.3 °F 41.8 °F 29.60 in Calm   2.0 mph 91% 0.00 in OVC
21:45 44.1 °F 41.6 °F 29.59 in WNW 1.0 mph 3.0 mph 91% 0.00 in OVC
22:00 43.8 °F 41.6 °F 29.60 in SSW 1.0 mph 5.0 mph 92% 0.00 in OVC
22:15 43.8 °F 41.3 °F 29.59 in Calm   5.0 mph 91% 0.00 in SCT
22:30 44.0 °F 41.3 °F 29.61 in SW 2.0 mph 6.0 mph 90% 0.00 in SCT
22:45 43.7 °F 39.8 °F 29.63 in NNW 2.0 mph 17.0 mph 86% 0.00 in SCT
23:00 43.5 °F 39.6 °F 29.65 in NE 1.0 mph 9.0 mph 86% 0.00 in SCT
23:15 42.7 °F 39.7 °F 29.64 in NNW 6.0 mph 10.0 mph 89% 0.00 in BKN
23:30 41.6 °F 38.6 °F 29.64 in NNW 2.0 mph 10.0 mph 89% 0.00 in BKN
23:45 41.3 °F 38.3 °F 29.66 in NW 2.0 mph 9.0 mph 89% 0.00 in BKN
TarryTown NY Weather
Compliments of Weather Underground - 1.5 mb